sensor_id;sensor_type;location;lat;lon;timestamp;pressure;altitude;pressure_sealevel;temperature;humidity
11212;BME280;5663;50.864;12.096;2023-03-13T02:45:38;98492.28;;;8.87;73.90
11212;BME280;5663;50.864;12.096;2023-03-13T02:48:08;98476.56;;;8.91;73.71
11212;BME280;5663;50.864;12.096;2023-03-13T02:50:35;98475.63;;;8.92;73.73
11212;BME280;5663;50.864;12.096;2023-03-13T02:53:05;98472.28;;;8.89;73.47
11212;BME280;5663;50.864;12.096;2023-03-13T02:55:37;98483.50;;;8.90;74.05
11212;BME280;5663;50.864;12.096;2023-03-13T02:58:06;98473.88;;;8.92;74.16
11212;BME280;5663;50.864;12.096;2023-03-13T03:00:34;98491.09;;;8.93;73.77
11212;BME280;5663;50.864;12.096;2023-03-13T03:03:03;98467.69;;;8.95;73.81
11212;BME280;5663;50.864;12.096;2023-03-13T03:05:31;98470.09;;;8.98;73.94
11212;BME280;5663;50.864;12.096;2023-03-13T03:07:58;98438.19;;;8.81;74.15
11212;BME280;5663;50.864;12.096;2023-03-13T03:10:26;98467.41;;;8.99;73.80
11212;BME280;5663;50.864;12.096;2023-03-13T03:12:54;98443.03;;;8.87;74.02
11212;BME280;5663;50.864;12.096;2023-03-13T03:15:22;98461.94;;;9.04;73.65
11212;BME280;5663;50.864;12.096;2023-03-13T03:17:50;98458.25;;;9.08;73.65
11212;BME280;5663;50.864;12.096;2023-03-13T03:20:19;98447.88;;;9.08;73.90
11212;BME280;5663;50.864;12.096;2023-03-13T03:22:47;98440.84;;;9.10;73.91
11212;BME280;5663;50.864;12.096;2023-03-13T03:25:15;98424.53;;;9.08;73.96
11212;BME280;5663;50.864;12.096;2023-03-13T03:27:43;98425.28;;;9.10;74.36
11212;BME280;5663;50.864;12.096;2023-03-13T03:30:12;98422.69;;;9.10;73.97
11212;BME280;5663;50.864;12.096;2023-03-13T03:32:40;98416.56;;;9.11;73.77
11212;BME280;5663;50.864;12.096;2023-03-13T03:35:09;98412.88;;;9.15;74.44
11212;BME280;5663;50.864;12.096;2023-03-13T03:37:38;98414.53;;;9.16;74.34
11212;BME280;5663;50.864;12.096;2023-03-13T03:40:07;98416.94;;;9.19;74.37
11212;BME280;5663;50.864;12.096;2023-03-13T03:42:35;98395.72;;;9.12;73.82
11212;BME280;5663;50.864;12.096;2023-03-13T03:45:05;98406.47;;;9.21;74.40
11212;BME280;5663;50.864;12.096;2023-03-13T03:47:33;98393.41;;;9.22;74.13
11212;BME280;5663;50.864;12.096;2023-03-13T03:50:02;98365.06;;;9.05;73.98
11212;BME280;5663;50.864;12.096;2023-03-13T03:52:29;98387.53;;;9.33;74.13
11212;BME280;5663;50.864;12.096;2023-03-13T03:54:59;98380.41;;;9.36;74.08
11212;BME280;5663;50.864;12.096;2023-03-13T03:57:27;98306.16;;;8.93;73.64
11212;BME280;5663;50.864;12.096;2023-03-13T03:59:55;98340.88;;;9.19;73.82
11212;BME280;5663;50.864;12.096;2023-03-13T04:02:23;98369.66;;;9.43;73.94
11212;BME280;5663;50.864;12.096;2023-03-13T04:04:50;98369.47;;;9.46;73.83
11212;BME280;5663;50.864;12.096;2023-03-13T04:07:18;98330.75;;;9.28;73.98
11212;BME280;5663;50.864;12.096;2023-03-13T04:09:46;98359.72;;;9.49;73.82
11212;BME280;5663;50.864;12.096;2023-03-13T04:12:15;98348.13;;;9.55;73.88
11212;BME280;5663;50.864;12.096;2023-03-13T04:14:44;98301.09;;;9.32;73.80
11212;BME280;5663;50.864;12.096;2023-03-13T04:17:11;98353.66;;;9.63;73.66
11212;BME280;5663;50.864;12.096;2023-03-13T04:19:39;98346.59;;;9.65;73.79
11212;BME280;5663;50.864;12.096;2023-03-13T04:22:07;98349.00;;;9.68;73.74
11212;BME280;5663;50.864;12.096;2023-03-13T04:24:35;98354.00;;;9.71;73.71
11212;BME280;5663;50.864;12.096;2023-03-13T04:27:03;98337.31;;;9.75;73.46
11212;BME280;5663;50.864;12.096;2023-03-13T04:29:33;98337.19;;;9.77;73.29
11212;BME280;5663;50.864;12.096;2023-03-13T04:32:01;98329.31;;;9.78;73.21
11212;BME280;5663;50.864;12.096;2023-03-13T04:34:28;98323.94;;;9.81;73.22
11212;BME280;5663;50.864;12.096;2023-03-13T04:36:56;98309.09;;;9.83;73.17
11212;BME280;5663;50.864;12.096;2023-03-13T04:39:29;98297.75;;;9.84;72.88
11212;BME280;5663;50.864;12.096;2023-03-13T04:41:57;98279.50;;;9.86;73.03
11212;BME280;5663;50.864;12.096;2023-03-13T04:44:24;98282.94;;;9.86;72.89
11212;BME280;5663;50.864;12.096;2023-03-13T05:48:34;98177.06;;;10.41;72.14
11212;BME280;5663;50.864;12.096;2023-03-13T05:51:02;98173.63;;;10.41;72.25
11212;BME280;5663;50.864;12.096;2023-03-13T05:53:29;98168.44;;;10.41;72.64
11212;BME280;5663;50.864;12.096;2023-03-13T05:55:57;98161.59;;;10.40;72.93
11212;BME280;5663;50.864;12.096;2023-03-13T05:58:24;98163.47;;;10.38;73.26
11212;BME280;5663;50.864;12.096;2023-03-13T06:00:52;98167.72;;;10.39;73.57
11212;BME280;5663;50.864;12.096;2023-03-13T06:03:21;98164.19;;;10.40;74.08
11212;BME280;5663;50.864;12.096;2023-03-13T06:05:57;98148.59;;;10.40;73.96
11212;BME280;5663;50.864;12.096;2023-03-13T06:08:24;98141.53;;;10.42;73.95
11212;BME280;5663;50.864;12.096;2023-03-13T06:10:53;98134.56;;;10.42;74.07
11212;BME280;5663;50.864;12.096;2023-03-13T06:13:21;98127.59;;;10.43;74.00
11212;BME280;5663;50.864;12.096;2023-03-13T06:15:51;98130.09;;;10.44;74.04
11212;BME280;5663;50.864;12.096;2023-03-13T06:18:19;98116.06;;;10.47;73.97
11212;BME280;5663;50.864;12.096;2023-03-13T06:20:54;98098.94;;;10.31;73.90
11212;BME280;5663;50.864;12.096;2023-03-13T06:23:22;98123.41;;;10.53;74.02
11212;BME280;5663;50.864;12.096;2023-03-13T06:25:50;98133.59;;;10.56;74.03
11212;BME280;5663;50.864;12.096;2023-03-13T06:28:18;98130.66;;;10.60;73.81
11212;BME280;5663;50.864;12.096;2023-03-13T06:30:45;98130.44;;;10.64;74.01
11212;BME280;5663;50.864;12.096;2023-03-13T06:33:14;98125.84;;;10.67;74.10
11212;BME280;5663;50.864;12.096;2023-03-13T06:35:42;98125.84;;;10.67;74.08
11212;BME280;5663;50.864;12.096;2023-03-13T06:38:11;98108.06;;;10.74;74.13
11212;BME280;5663;50.864;12.096;2023-03-13T06:40:40;98116.22;;;10.80;74.03
11212;BME280;5663;50.864;12.096;2023-03-13T06:43:08;98098.53;;;10.85;73.85
11212;BME280;5663;50.864;12.096;2023-03-13T06:45:36;98091.00;;;10.94;73.73
11212;BME280;5663;50.864;12.096;2023-03-13T09:47:41;98054.25;;;14.83;69.54
11212;BME280;5663;50.864;12.096;2023-03-13T09:50:12;98073.28;;;14.85;69.50
11212;BME280;5663;50.864;12.096;2023-03-13T09:52:41;98065.28;;;14.86;69.35
11212;BME280;5663;50.864;12.096;2023-03-13T09:55:15;98071.06;;;14.90;69.15
11212;BME280;5663;50.864;12.096;2023-03-13T09:57:50;98055.91;;;14.93;69.28
11212;BME280;5663;50.864;12.096;2023-03-13T10:00:23;98070.50;;;14.96;69.03
11212;BME280;5663;50.864;12.096;2023-03-13T10:02:56;98068.84;;;14.95;68.80
11212;BME280;5663;50.864;12.096;2023-03-13T10:05:28;98084.28;;;14.98;68.39
11212;BME280;5663;50.864;12.096;2023-03-13T10:08:00;98084.56;;;14.95;68.53
11212;BME280;5663;50.864;12.096;2023-03-13T10:10:36;98080.69;;;14.99;68.32
11212;BME280;5663;50.864;12.096;2023-03-13T10:13:13;98071.88;;;15.00;67.85
11212;BME280;5663;50.864;12.096;2023-03-13T10:15:46;98063.63;;;14.95;67.95
11212;BME280;5663;50.864;12.096;2023-03-13T10:18:20;98057.13;;;14.99;67.79
11212;BME280;5663;50.864;12.096;2023-03-13T10:20:50;98038.41;;;14.94;67.59
11212;BME280;5663;50.864;12.096;2023-03-13T10:23:23;98065.69;;;15.01;67.34
11212;BME280;5663;50.864;12.096;2023-03-13T10:25:54;98050.66;;;15.03;67.43
11212;BME280;5663;50.864;12.096;2023-03-13T10:28:22;98055.78;;;15.05;67.44
11212;BME280;5663;50.864;12.096;2023-03-13T10:30:53;98033.31;;;15.02;67.36
11212;BME280;5663;50.864;12.096;2023-03-13T10:33:25;98049.28;;;14.99;67.28
11212;BME280;5663;50.864;12.096;2023-03-13T10:36:02;98021.88;;;14.84;67.16
11212;BME280;5663;50.864;12.096;2023-03-13T10:38:33;98042.94;;;14.92;67.33
11212;BME280;5663;50.864;12.096;2023-03-13T10:41:05;98045.56;;;14.92;67.45
11212;BME280;5663;50.864;12.096;2023-03-13T10:43:49;98024.09;;;14.88;67.51
11212;BME280;5663;50.864;12.096;2023-03-13T10:46:23;98025.59;;;14.91;67.46
11212;BME280;5663;50.864;12.096;2023-03-13T12:49:33;97899.03;;;18.67;59.71
11212;BME280;5663;50.864;12.096;2023-03-13T12:52:36;97896.44;;;18.84;59.70
11212;BME280;5663;50.864;12.096;2023-03-13T12:55:31;97882.53;;;19.06;59.89
11212;BME280;5663;50.864;12.096;2023-03-13T12:58:42;97871.47;;;19.19;58.20
11212;BME280;5663;50.864;12.096;2023-03-13T13:01:15;97886.13;;;19.13;58.57
11212;BME280;5663;50.864;12.096;2023-03-13T13:03:51;97874.00;;;19.04;58.26
11212;BME280;5663;50.864;12.096;2023-03-13T13:06:21;97867.09;;;18.95;58.04
11212;BME280;5663;50.864;12.096;2023-03-13T13:09:05;97865.59;;;19.01;58.39
11212;BME280;5663;50.864;12.096;2023-03-13T13:11:46;97874.13;;;19.03;58.08
11212;BME280;5663;50.864;12.096;2023-03-13T13:17:22;97878.78;;;19.01;58.04
11212;BME280;5663;50.864;12.096;2023-03-13T13:19:53;97869.75;;;18.95;57.94
11212;BME280;5663;50.864;12.096;2023-03-13T13:22:48;97872.69;;;18.92;57.75
11212;BME280;5663;50.864;12.096;2023-03-13T13:25:30;97868.41;;;18.91;57.84
11212;BME280;5663;50.864;12.096;2023-03-13T13:28:31;97851.97;;;18.81;58.40
11212;BME280;5663;50.864;12.096;2023-03-13T13:31:00;97851.16;;;18.72;58.66
11212;BME280;5663;50.864;12.096;2023-03-13T13:33:39;97854.63;;;18.73;58.57
11212;BME280;5663;50.864;12.096;2023-03-13T13:36:30;97851.47;;;18.69;58.49
11212;BME280;5663;50.864;12.096;2023-03-13T13:38:59;97841.13;;;18.51;58.53
11212;BME280;5663;50.864;12.096;2023-03-13T13:41:34;97789.50;;;18.09;58.06
11212;BME280;5663;50.864;12.096;2023-03-13T13:44:26;97842.44;;;18.39;58.62
11212;BME280;5663;50.864;12.096;2023-03-13T13:46:56;97856.59;;;18.38;59.19
11212;BME280;5663;50.864;12.096;2023-03-13T15:18:52;97710.56;;;18.17;59.09
11212;BME280;5663;50.864;12.096;2023-03-13T15:21:24;97726.31;;;18.26;59.05
11212;BME280;5663;50.864;12.096;2023-03-13T15:23:54;97645.16;;;17.73;59.02
11212;BME280;5663;50.864;12.096;2023-03-13T15:26:23;97709.72;;;18.17;59.04
11212;BME280;5663;50.864;12.096;2023-03-13T15:28:50;97697.44;;;18.01;59.12
11212;BME280;5663;50.864;12.096;2023-03-13T15:31:19;97698.09;;;18.11;59.35
11212;BME280;5663;50.864;12.096;2023-03-13T15:33:55;97694.78;;;18.09;59.28
11212;BME280;5663;50.864;12.096;2023-03-13T15:36:24;97693.47;;;18.13;59.73
11212;BME280;5663;50.864;12.096;2023-03-13T15:38:51;97676.69;;;18.14;59.66
11212;BME280;5663;50.864;12.096;2023-03-13T15:41:22;97681.28;;;18.20;59.69
11212;BME280;5663;50.864;12.096;2023-03-13T15:43:50;97678.31;;;18.24;59.82
11212;BME280;5663;50.864;12.096;2023-03-13T15:46:20;97667.13;;;18.21;59.54
11212;BME280;5663;50.864;12.096;2023-03-13T15:48:48;97649.72;;;18.20;59.55
11212;BME280;5663;50.864;12.096;2023-03-13T15:51:18;97642.63;;;18.21;59.82
11212;BME280;5663;50.864;12.096;2023-03-13T15:53:47;97629.63;;;18.28;59.56
11212;BME280;5663;50.864;12.096;2023-03-13T15:56:16;97616.94;;;18.31;58.93
11212;BME280;5663;50.864;12.096;2023-03-13T15:58:45;97626.59;;;18.39;58.61
11212;BME280;5663;50.864;12.096;2023-03-13T16:01:14;97582.91;;;18.30;59.00
11212;BME280;5663;50.864;12.096;2023-03-13T16:03:43;97599.91;;;18.50;58.99
11212;BME280;5663;50.864;12.096;2023-03-13T16:06:16;97600.91;;;18.49;58.77
11212;BME280;5663;50.864;12.096;2023-03-13T16:08:46;97593.72;;;18.35;58.28
11212;BME280;5663;50.864;12.096;2023-03-13T16:11:15;97561.41;;;18.18;58.45
11212;BME280;5663;50.864;12.096;2023-03-13T16:13:43;97589.63;;;18.32;58.63
11212;BME280;5663;50.864;12.096;2023-03-13T16:16:18;97580.00;;;18.16;58.50
11212;BME280;5663;50.864;12.096;2023-03-13T17:20:30;97528.53;;;16.60;61.23
11212;BME280;5663;50.864;12.096;2023-03-13T17:22:58;97523.25;;;16.52;61.43
11212;BME280;5663;50.864;12.096;2023-03-13T17:25:26;97498.94;;;16.25;61.76
11212;BME280;5663;50.864;12.096;2023-03-13T17:27:54;97527.50;;;16.37;61.97
11212;BME280;5663;50.864;12.096;2023-03-13T17:30:25;97525.84;;;16.36;62.12
11212;BME280;5663;50.864;12.096;2023-03-13T17:32:53;97527.78;;;16.34;62.46
11212;BME280;5663;50.864;12.096;2023-03-13T17:35:21;97510.88;;;16.20;62.51
11212;BME280;5663;50.864;12.096;2023-03-13T17:37:50;97524.50;;;16.32;62.73
11212;BME280;5663;50.864;12.096;2023-03-13T17:40:19;97535.00;;;16.32;62.69
11212;BME280;5663;50.864;12.096;2023-03-13T17:42:49;97544.53;;;16.33;62.62
11212;BME280;5663;50.864;12.096;2023-03-13T17:45:18;97539.94;;;16.35;62.65
11212;BME280;5663;50.864;12.096;2023-03-13T17:47:46;97543.22;;;16.37;62.77
11212;BME280;5663;50.864;12.096;2023-03-13T17:50:17;97539.94;;;16.35;63.09
11212;BME280;5663;50.864;12.096;2023-03-13T17:52:45;97535.50;;;16.35;63.26
11212;BME280;5663;50.864;12.096;2023-03-13T17:55:16;97533.72;;;16.36;63.49
11212;BME280;5663;50.864;12.096;2023-03-13T17:57:44;97541.59;;;16.36;63.99
11212;BME280;5663;50.864;12.096;2023-03-13T18:00:20;97546.44;;;16.22;64.54
11212;BME280;5663;50.864;12.096;2023-03-13T18:02:49;97603.53;;;16.29;64.83
11212;BME280;5663;50.864;12.096;2023-03-13T18:05:17;97641.84;;;16.21;65.33
11212;BME280;5663;50.864;12.096;2023-03-13T18:07:45;97737.56;;;16.17;66.28
11212;BME280;5663;50.864;12.096;2023-03-13T18:10:18;97820.38;;;16.02;67.72
11212;BME280;5663;50.864;12.096;2023-03-13T18:12:45;97733.75;;;15.68;67.25
11212;BME280;5663;50.864;12.096;2023-03-13T18:15:13;97725.53;;;15.35;67.80
11212;BME280;5663;50.864;12.096;2023-03-13T18:17:41;97681.44;;;14.95;67.83
11212;BME280;5663;50.864;12.096;2023-03-13T18:20:14;97683.38;;;14.93;68.16
11212;BME280;5663;50.864;12.096;2023-03-13T18:22:43;97644.09;;;14.75;68.25
11212;BME280;5663;50.864;12.096;2023-03-13T18:25:13;97622.16;;;14.58;68.94
11212;BME280;5663;50.864;12.096;2023-03-13T18:27:42;97641.88;;;14.52;69.33
11212;BME280;5663;50.864;12.096;2023-03-13T18:30:13;97635.69;;;14.44;69.87
11212;BME280;5663;50.864;12.096;2023-03-13T18:32:44;97615.78;;;14.33;69.83
11212;BME280;5663;50.864;12.096;2023-03-13T18:35:12;97628.06;;;14.33;69.96
11212;BME280;5663;50.864;12.096;2023-03-13T18:37:41;97636.63;;;14.25;69.73
11212;BME280;5663;50.864;12.096;2023-03-13T18:40:15;97584.31;;;13.88;69.49
11212;BME280;5663;50.864;12.096;2023-03-13T18:42:45;97624.31;;;13.98;69.94
11212;BME280;5663;50.864;12.096;2023-03-13T18:45:14;97609.78;;;13.76;69.49
11212;BME280;5663;50.864;12.096;2023-03-13T18:47:41;97636.78;;;13.67;69.34
11212;BME280;5663;50.864;12.096;2023-03-13T18:50:22;97651.50;;;13.58;69.30
11212;BME280;5663;50.864;12.096;2023-03-13T18:52:53;97637.06;;;13.44;70.30
11212;BME280;5663;50.864;12.096;2023-03-13T18:55:21;97606.59;;;13.45;70.47
11212;BME280;5663;50.864;12.096;2023-03-13T18:57:51;97587.63;;;13.33;71.20
11212;BME280;5663;50.864;12.096;2023-03-13T19:00:24;97582.84;;;13.28;71.76
11212;BME280;5663;50.864;12.096;2023-03-13T19:02:52;97585.72;;;13.25;72.09
11212;BME280;5663;50.864;12.096;2023-03-13T19:05:19;97582.41;;;13.23;72.28
11212;BME280;5663;50.864;12.096;2023-03-13T19:07:47;97578.97;;;13.23;72.70
11212;BME280;5663;50.864;12.096;2023-03-13T19:10:21;97585.94;;;13.22;73.17
11212;BME280;5663;50.864;12.096;2023-03-13T19:12:51;97574.81;;;13.20;73.34
11212;BME280;5663;50.864;12.096;2023-03-13T19:15:19;97538.28;;;13.20;73.55
11212;BME280;5663;50.864;12.096;2023-03-13T19:17:50;97537.59;;;13.18;73.92
11212;BME280;5663;50.864;12.096;2023-03-13T20:19:15;97471.44;;;12.80;76.37
11212;BME280;5663;50.864;12.096;2023-03-13T20:21:43;97483.81;;;12.78;76.70
11212;BME280;5663;50.864;12.096;2023-03-13T20:24:11;97480.50;;;12.76;76.85
11212;BME280;5663;50.864;12.096;2023-03-13T20:26:39;97468.69;;;12.72;77.04
11212;BME280;5663;50.864;12.096;2023-03-13T20:29:06;97452.66;;;12.67;77.66
11212;BME280;5663;50.864;12.096;2023-03-13T20:31:34;97461.44;;;12.66;77.85
11212;BME280;5663;50.864;12.096;2023-03-13T20:34:01;97464.72;;;12.68;77.71
11212;BME280;5663;50.864;12.096;2023-03-13T20:36:31;97463.91;;;12.68;78.10
11212;BME280;5663;50.864;12.096;2023-03-13T20:38:59;97466.41;;;12.69;77.76
11212;BME280;5663;50.864;12.096;2023-03-13T20:41:28;97465.44;;;12.70;77.94
11212;BME280;5663;50.864;12.096;2023-03-13T20:43:56;97457.22;;;12.65;77.61
11212;BME280;5663;50.864;12.096;2023-03-13T20:46:23;97464.47;;;12.71;77.50
11212;BME280;5663;50.864;12.096;2023-03-13T20:48:51;97461.44;;;12.66;77.67
11212;BME280;5663;50.864;12.096;2023-03-13T20:51:19;97487.13;;;12.71;77.84
11212;BME280;5663;50.864;12.096;2023-03-13T20:53:48;97456.94;;;12.49;77.79
11212;BME280;5663;50.864;12.096;2023-03-13T20:56:15;97500.31;;;12.69;77.90
11212;BME280;5663;50.864;12.096;2023-03-13T20:58:43;97486.81;;;12.64;77.79
11212;BME280;5663;50.864;12.096;2023-03-13T21:01:10;97499.47;;;12.69;78.03
11212;BME280;5663;50.864;12.096;2023-03-13T21:03:39;97481.22;;;12.59;78.30
11212;BME280;5663;50.864;12.096;2023-03-13T21:06:08;97419.63;;;12.29;78.16
11212;BME280;5663;50.864;12.096;2023-03-13T21:08:36;97489.88;;;12.69;78.29
11212;BME280;5663;50.864;12.096;2023-03-13T21:11:12;97484.09;;;12.66;78.33
11212;BME280;5663;50.864;12.096;2023-03-13T21:13:40;97461.59;;;12.55;78.36
11212;BME280;5663;50.864;12.096;2023-03-13T21:16:07;97488.63;;;12.73;78.59
11212;BME280;5663;50.864;12.096;2023-03-13T21:18:36;97495.34;;;12.76;78.77
11212;BME280;5663;50.864;12.096;2023-03-13T21:21:04;97487.41;;;12.77;78.69
11212;BME280;5663;50.864;12.096;2023-03-13T21:23:32;97506.31;;;12.79;78.47
11212;BME280;5663;50.864;12.096;2023-03-13T21:26:00;97480.25;;;12.60;78.65
11212;BME280;5663;50.864;12.096;2023-03-13T21:28:30;97492.03;;;12.64;78.78
11212;BME280;5663;50.864;12.096;2023-03-13T21:30:58;97514.84;;;12.81;78.53
11212;BME280;5663;50.864;12.096;2023-03-13T21:33:33;97514.84;;;12.81;78.86
11212;BME280;5663;50.864;12.096;2023-03-13T21:36:01;97509.91;;;12.78;79.24
11212;BME280;5663;50.864;12.096;2023-03-13T21:38:29;97517.59;;;12.90;78.92
11212;BME280;5663;50.864;12.096;2023-03-13T21:40:56;97491.50;;;12.70;79.07
11212;BME280;5663;50.864;12.096;2023-03-13T21:43:24;97521.16;;;12.89;79.16
11212;BME280;5663;50.864;12.096;2023-03-13T21:45:58;97518.41;;;12.90;79.38
11212;BME280;5663;50.864;12.096;2023-03-13T21:48:25;97524.44;;;12.91;79.19
11212;BME280;5663;50.864;12.096;2023-03-13T21:50:53;97533.78;;;12.93;79.56
11212;BME280;5663;50.864;12.096;2023-03-13T21:53:21;97534.63;;;12.94;79.52
11212;BME280;5663;50.864;12.096;2023-03-13T21:55:50;97548.63;;;12.93;79.33
11212;BME280;5663;50.864;12.096;2023-03-13T21:58:18;97539.56;;;12.97;79.49
11212;BME280;5663;50.864;12.096;2023-03-13T22:00:46;97543.25;;;12.94;79.36
11212;BME280;5663;50.864;12.096;2023-03-13T22:03:14;97547.50;;;12.95;79.35
11212;BME280;5663;50.864;12.096;2023-03-13T22:05:45;97545.59;;;12.97;79.50
11212;BME280;5663;50.864;12.096;2023-03-13T22:08:12;97537.63;;;12.99;79.78
11212;BME280;5663;50.864;12.096;2023-03-13T22:10:46;97526.38;;;12.98;79.89
11212;BME280;5663;50.864;12.096;2023-03-13T22:13:14;97518.69;;;12.97;79.90
11212;BME280;5663;50.864;12.096;2023-03-13T22:15:42;97487.38;;;12.97;80.36
11212;BME280;5663;50.864;12.096;2023-03-13T22:18:11;97452.09;;;12.93;80.47
11212;BME280;5663;50.864;12.096;2023-03-13T23:22:27;97313.66;;;12.57;80.65
11212;BME280;5663;50.864;12.096;2023-03-13T23:24:57;97304.50;;;12.53;80.59
11212;BME280;5663;50.864;12.096;2023-03-13T23:27:25;97303.53;;;12.54;80.85
11212;BME280;5663;50.864;12.096;2023-03-13T23:29:53;97303.78;;;12.51;80.51
11212;BME280;5663;50.864;12.096;2023-03-13T23:32:20;97304.88;;;12.48;80.69
11212;BME280;5663;50.864;12.096;2023-03-13T23:34:48;97299.97;;;12.45;80.49
11212;BME280;5663;50.864;12.096;2023-03-13T23:37:16;97301.34;;;12.40;80.36
11212;BME280;5663;50.864;12.096;2023-03-13T23:39:46;97307.94;;;12.34;80.38
11212;BME280;5663;50.864;12.096;2023-03-13T23:42:13;97303.00;;;12.31;80.38
11212;BME280;5663;50.864;12.096;2023-03-13T23:44:41;97292.03;;;12.27;80.28
11212;BME280;5663;50.864;12.096;2023-03-13T23:47:08;97290.69;;;12.23;80.34
11212;BME280;5663;50.864;12.096;2023-03-13T23:49:38;97281.91;;;12.15;81.03
11212;BME280;5663;50.864;12.096;2023-03-13T23:52:05;97233.56;;;11.83;81.28
11212;BME280;5663;50.864;12.096;2023-03-13T23:54:35;97260.56;;;12.01;81.67
11212;BME280;5663;50.864;12.096;2023-03-13T23:57:04;97263.97;;;12.02;81.56
11212;BME280;5663;50.864;12.096;2023-03-13T23:59:33;97265.88;;;12.00;81.56
